createdAt,value
2018-07-27T00:00:36.889Z,11.33
2018-07-27T00:03:07.515Z,11.65
2018-07-27T00:05:37.534Z,11.35
2018-07-27T00:08:08.216Z,11.48
2018-07-27T00:10:38.238Z,11.88
2018-07-27T00:13:08.973Z,10.78
2018-07-27T00:15:38.989Z,10.88
2018-07-27T00:18:09.104Z,11.70
2018-07-27T00:20:41.275Z,11.20
2018-07-27T00:23:17.157Z,11.05
2018-07-27T00:25:47.353Z,10.53
2018-07-27T00:28:19.622Z,10.72
2018-07-27T00:30:51.626Z,10.88
2018-07-27T00:33:24.873Z,11.20
2018-07-27T00:35:55.101Z,10.82
2018-07-27T00:38:29.620Z,11.20
2018-07-27T00:40:59.949Z,10.58
2018-07-27T00:43:34.192Z,11.43
2018-07-27T00:46:04.493Z,11.35
2018-07-27T00:48:34.706Z,10.53
2018-07-27T00:51:04.878Z,10.20
2018-07-27T00:53:34.901Z,10.35
2018-07-27T00:56:05.216Z,10.78
2018-07-27T00:58:39.886Z,10.82
2018-07-27T01:01:10.629Z,10.15
2018-07-27T01:03:44.835Z,10.40
2018-07-27T01:06:14.901Z,9.90
2018-07-27T01:08:44.970Z,10.03
2018-07-27T01:11:15.197Z,10.08
2018-07-27T01:13:45.272Z,10.20
2018-07-27T01:16:15.347Z,10.85
2018-07-27T01:18:45.085Z,9.60
2018-07-27T01:21:16.486Z,9.55
2018-07-27T01:23:47.014Z,10.18
2018-07-27T01:26:17.207Z,9.98
2018-07-27T01:28:47.168Z,9.83
2018-07-27T01:31:17.374Z,8.88
2018-07-27T01:33:47.409Z,9.55
2018-07-27T01:36:23.468Z,9.60
2018-07-27T01:38:56.574Z,9.78
2018-07-27T01:41:31.772Z,9.50
2018-07-27T01:44:01.831Z,8.95
2018-07-27T01:46:35.486Z,9.65
2018-07-27T01:49:09.378Z,9.35
2018-07-27T01:51:39.351Z,8.90
2018-07-27T01:54:09.466Z,8.75
2018-07-27T01:56:39.472Z,8.65
2018-07-27T01:59:12.638Z,8.35
2018-07-27T02:01:44.090Z,8.70
2018-07-27T02:04:18.034Z,9.35
2018-07-27T02:06:48.153Z,8.93
2018-07-27T02:09:18.271Z,8.58
2018-07-27T02:11:48.319Z,8.75
2018-07-27T02:14:18.386Z,8.93
2018-07-27T02:16:48.383Z,8.38
2018-07-27T02:19:22.137Z,8.78
2018-07-27T02:21:53.642Z,8.50
2018-07-27T02:24:23.648Z,8.70
2018-07-27T02:26:53.673Z,9.05
2018-07-27T02:29:23.889Z,8.73
2018-07-27T02:31:53.968Z,8.88
2018-07-27T02:34:24.855Z,9.10
2018-07-27T02:36:56.582Z,8.63
2018-07-27T02:39:29.027Z,8.58
2018-07-27T02:42:00.879Z,8.55
2018-07-27T02:44:31.096Z,9.43
2018-07-27T02:47:01.137Z,8.58
2018-07-27T02:49:31.804Z,9.48
2018-07-27T02:52:08.454Z,8.78
2018-07-27T02:54:38.414Z,8.33
2018-07-27T02:57:08.078Z,8.90
2018-07-27T02:59:37.670Z,8.68
2018-07-27T03:02:07.531Z,9.25
2018-07-27T03:04:37.638Z,9.53
2018-07-27T03:07:09.654Z,8.95
2018-07-27T03:09:40.222Z,9.38
2018-07-27T03:12:10.234Z,8.65
2018-07-27T03:14:40.250Z,9.05
2018-07-27T03:17:10.411Z,9.33
2018-07-27T03:19:40.648Z,9.60
2018-07-27T03:22:10.889Z,9.28
2018-07-27T03:24:40.849Z,9.20
2018-07-27T03:27:10.902Z,9.53
2018-07-27T03:29:40.575Z,9.68
2018-07-27T03:32:10.603Z,9.78
2018-07-27T03:34:40.611Z,9.50
2018-07-27T03:37:10.626Z,9.88
2018-07-27T03:39:40.644Z,9.88
2018-07-27T03:42:10.825Z,9.85
2018-07-27T03:44:40.842Z,10.00
2018-07-27T03:47:13.668Z,10.98
2018-07-27T03:49:43.684Z,10.65
2018-07-27T03:52:14.085Z,10.38
2018-07-27T03:54:44.329Z,10.70
2018-07-27T03:57:14.351Z,12.82
2018-07-27T03:59:46.507Z,10.58
2018-07-27T04:02:16.661Z,10.65
2018-07-27T04:04:49.449Z,10.53
2018-07-27T04:07:19.518Z,10.48
2018-07-27T04:09:49.535Z,11.40
2018-07-27T04:12:25.266Z,12.15
2018-07-27T04:14:58.475Z,11.33
2018-07-27T04:17:28.536Z,10.78
2018-07-27T04:20:00.121Z,12.00
2018-07-27T04:22:30.138Z,12.70
2018-07-27T04:25:00.558Z,12.47
2018-07-27T04:27:33.080Z,12.00
2018-07-27T04:30:04.021Z,11.75
2018-07-27T04:32:37.060Z,12.85
2018-07-27T04:35:09.063Z,12.05
2018-07-27T04:37:42.865Z,12.73
2018-07-27T04:40:18.034Z,11.90
2018-07-27T04:42:48.376Z,12.30
2018-07-27T04:45:18.702Z,11.95
2018-07-27T04:47:48.830Z,12.20
2018-07-27T04:50:19.055Z,12.35
2018-07-27T04:52:49.211Z,11.55
2018-07-27T04:55:19.380Z,11.97
2018-07-27T04:57:51.692Z,11.95
2018-07-27T05:00:25.411Z,10.43
2018-07-27T05:02:55.643Z,11.05
2018-07-27T05:05:31.018Z,10.75
2018-07-27T05:08:01.043Z,10.60
2018-07-27T05:10:36.974Z,10.58
2018-07-27T05:13:08.180Z,9.80
2018-07-27T05:15:38.213Z,10.03
2018-07-27T05:18:10.601Z,9.13
2018-07-27T05:23:40.023Z,8.98
2018-07-27T05:26:20.724Z,8.58
2018-07-27T05:29:03.767Z,8.68
2018-07-27T05:31:51.384Z,8.88
2018-07-27T05:34:36.090Z,7.87
2018-07-27T05:37:15.986Z,8.48
2018-07-27T05:39:52.527Z,8.40
2018-07-27T05:45:34.989Z,8.50
2018-07-27T05:48:13.665Z,9.73
2018-07-27T05:57:09.217Z,8.48
2018-07-27T06:12:50.167Z,12.90
2018-07-27T06:54:51.169Z,6.33
2018-07-27T07:00:28.606Z,5.80
2018-07-27T07:03:04.878Z,6.37
2018-07-27T07:05:39.791Z,5.90
2018-07-27T07:08:16.335Z,5.78
2018-07-27T07:10:53.942Z,5.70
2018-07-27T07:13:31.466Z,5.70
2018-07-27T07:16:17.578Z,5.35
2018-07-27T07:19:00.450Z,5.70
2018-07-27T07:21:32.500Z,5.47
2018-07-27T07:26:45.456Z,6.35
2018-07-27T07:29:25.549Z,5.20
2018-07-27T07:32:01.640Z,5.90
2018-07-27T07:34:50.954Z,6.17
2018-07-27T07:43:37.598Z,5.30
2018-07-27T07:46:08.275Z,5.78
2018-07-27T07:48:39.713Z,5.58
2018-07-27T07:51:10.686Z,5.42
2018-07-27T07:53:44.068Z,5.45
2018-07-27T07:56:14.573Z,5.67
2018-07-27T07:58:47.192Z,5.40
2018-07-27T08:01:17.945Z,6.15
2018-07-27T08:03:48.162Z,5.95
2018-07-27T08:06:18.951Z,5.80
2018-07-27T08:08:49.321Z,6.37
2018-07-27T08:11:19.871Z,5.90
2018-07-27T08:13:50.616Z,5.67
2018-07-27T08:16:21.793Z,6.00
2018-07-27T08:18:52.157Z,6.03
2018-07-27T08:21:27.508Z,6.08
2018-07-27T08:23:58.169Z,5.65
2018-07-27T08:26:46.221Z,6.03
2018-07-27T08:29:19.304Z,5.40
2018-07-27T08:31:50.920Z,5.35
2018-07-27T08:34:26.709Z,5.47
2018-07-27T08:36:57.169Z,5.75
2018-07-27T08:39:29.373Z,5.60
2018-07-27T08:41:59.919Z,6.00
2018-07-27T08:44:42.360Z,5.65
2018-07-27T08:47:14.374Z,5.45
2018-07-27T08:49:44.828Z,5.75
2018-07-27T08:52:15.069Z,5.53
2018-07-27T08:54:54.145Z,5.53
2018-07-27T08:57:24.601Z,5.30
2018-07-27T08:59:55.382Z,5.12
2018-07-27T09:02:29.004Z,4.30
2018-07-27T09:05:01.585Z,4.22
2018-07-27T09:07:37.324Z,4.78
2018-07-27T09:10:15.577Z,4.62
2018-07-27T09:12:49.604Z,4.37
2018-07-27T09:15:23.976Z,4.00
2018-07-27T09:17:56.343Z,4.37
2018-07-27T09:20:36.298Z,4.37
2018-07-27T09:23:09.670Z,4.17
2018-07-27T09:25:45.741Z,4.20
2018-07-27T09:28:19.470Z,4.10
2018-07-27T09:30:51.608Z,4.10
2018-07-27T09:33:24.541Z,4.00
2018-07-27T09:35:59.749Z,4.78
2018-07-27T09:38:30.685Z,4.58
2018-07-27T09:41:01.656Z,4.78
2018-07-27T09:43:32.579Z,5.10
2018-07-27T09:46:04.765Z,5.15
2018-07-27T09:48:35.073Z,6.20
2018-07-27T09:51:10.849Z,5.97
2018-07-27T09:53:45.058Z,5.58
2018-07-27T09:56:17.724Z,5.08
2018-07-27T09:58:53.610Z,4.50
2018-07-27T10:01:30.479Z,4.72
2018-07-27T10:04:02.074Z,4.90
2018-07-27T10:06:34.041Z,5.40
2018-07-27T10:09:05.761Z,5.00
2018-07-27T10:11:50.695Z,5.20
2018-07-27T10:14:21.020Z,4.40
2018-07-27T10:16:51.656Z,4.50
2018-07-27T10:19:21.923Z,4.62
2018-07-27T10:21:53.180Z,4.60
2018-07-27T10:24:25.294Z,4.42
2018-07-27T10:26:55.853Z,4.95
2018-07-27T10:29:26.490Z,6.85
2018-07-27T10:31:58.542Z,4.67
2018-07-27T10:34:28.938Z,4.87
2018-07-27T10:37:02.234Z,4.70
2018-07-27T10:39:35.296Z,5.17
2018-07-27T10:42:06.370Z,4.70
2018-07-27T10:44:37.396Z,5.22
2018-07-27T10:47:08.601Z,5.37
2018-07-27T10:49:42.928Z,5.20
2018-07-27T10:52:15.346Z,4.87
2018-07-27T10:54:46.685Z,4.90
2018-07-27T10:57:17.351Z,5.17
2018-07-27T10:59:48.720Z,5.00
2018-07-27T11:02:22.542Z,5.10
2018-07-27T11:04:54.390Z,5.70
2018-07-27T11:07:25.464Z,5.37
2018-07-27T11:09:56.439Z,5.47
2018-07-27T11:12:28.109Z,5.92
2018-07-27T11:14:59.466Z,5.67
2018-07-27T11:17:33.169Z,5.95
2018-07-27T11:20:03.918Z,5.90
2018-07-27T11:22:35.835Z,6.78
2018-07-27T11:25:11.405Z,6.22
2018-07-27T11:27:41.566Z,6.17
2018-07-27T11:30:14.257Z,6.35
2018-07-27T11:32:44.915Z,6.90
2018-07-27T11:35:15.753Z,7.03
2018-07-27T11:37:45.966Z,7.20
2018-07-27T11:40:16.312Z,7.20
2018-07-27T11:42:47.818Z,7.37
2018-07-27T11:45:18.089Z,7.10
2018-07-27T11:47:50.828Z,8.13
2018-07-27T11:50:20.722Z,7.37
2018-07-27T11:52:51.708Z,7.35
2018-07-27T11:55:26.491Z,7.22
2018-07-27T11:57:56.468Z,7.78
2018-07-27T12:00:26.844Z,8.00
2018-07-27T12:02:56.617Z,7.95
2018-07-27T12:05:26.805Z,7.60
2018-07-27T12:07:59.624Z,7.75
2018-07-27T12:10:30.218Z,7.85
2018-07-27T12:13:00.661Z,7.70
2018-07-27T12:15:32.054Z,8.00
2018-07-27T12:18:50.301Z,7.87
2018-07-27T12:34:39.769Z,7.72
2018-07-27T12:37:45.240Z,7.47
2018-07-27T12:45:46.091Z,7.42
2018-07-27T12:48:46.935Z,7.95
2018-07-27T12:57:58.401Z,7.42
2018-07-27T13:04:18.262Z,6.90
2018-07-27T13:13:23.710Z,7.72
2018-07-27T13:16:29.611Z,8.00
2018-07-27T13:19:03.567Z,7.28
2018-07-27T13:21:43.041Z,7.85
2018-07-27T13:24:19.337Z,7.60
2018-07-27T13:27:02.434Z,7.65
2018-07-27T13:29:49.539Z,7.92
2018-07-27T13:32:30.219Z,7.90
2018-07-27T13:35:18.872Z,7.10
2018-07-27T13:38:05.884Z,7.60
2018-07-27T13:40:47.744Z,7.53
2018-07-27T13:43:31.549Z,7.22
2018-07-27T13:46:10.626Z,7.40
2018-07-27T13:55:03.991Z,7.15
2018-07-27T13:57:40.724Z,7.40
2018-07-27T14:00:16.980Z,6.85
2018-07-27T14:02:47.525Z,6.87
2018-07-27T14:05:17.972Z,7.28
2018-07-27T14:07:49.410Z,7.28
2018-07-27T14:10:19.834Z,7.35
2018-07-27T14:12:51.082Z,7.03
2018-07-27T14:15:21.664Z,7.03
2018-07-27T14:17:57.316Z,6.97
2018-07-27T14:20:37.497Z,6.60
2018-07-27T14:23:13.235Z,6.30
2018-07-27T14:25:47.284Z,6.83
2018-07-27T14:28:25.908Z,6.87
2018-07-27T14:31:01.835Z,7.62
2018-07-27T14:33:33.915Z,7.42
2018-07-27T14:36:05.740Z,7.10
2018-07-27T14:38:51.789Z,6.95
2018-07-27T14:47:06.741Z,7.00
2018-07-27T14:49:43.842Z,7.30
2018-07-27T14:52:26.205Z,7.60
2018-07-27T14:55:02.357Z,7.05
2018-07-27T15:00:52.145Z,8.43
2018-07-27T15:03:37.008Z,7.35
2018-07-27T15:15:21.023Z,7.40
2018-07-27T15:18:18.922Z,7.50
2018-07-27T15:24:46.242Z,7.60
2018-07-27T15:27:33.219Z,7.62
2018-07-27T15:30:36.652Z,7.70
2018-07-27T15:33:24.569Z,8.30
2018-07-27T15:36:21.332Z,8.45
2018-07-27T15:39:04.291Z,8.60
2018-07-27T15:41:37.985Z,8.38
2018-07-27T15:44:11.635Z,8.83
2018-07-27T15:47:02.798Z,7.95
2018-07-27T15:56:10.645Z,8.00
2018-07-27T16:01:39.115Z,8.48
2018-07-27T16:07:49.560Z,8.78
2018-07-27T16:11:05.477Z,8.00
2018-07-27T16:13:56.681Z,8.30
2018-07-27T16:17:02.188Z,8.28
2018-07-27T16:19:51.106Z,8.48
2018-07-27T16:22:28.540Z,8.40
2018-07-27T16:25:10.414Z,8.65
2018-07-27T16:31:16.800Z,7.30
2018-07-27T16:39:38.186Z,8.03
2018-07-27T16:57:21.485Z,7.35
2018-07-27T16:59:53.827Z,8.20
2018-07-27T17:05:24.042Z,7.50
2018-07-27T17:07:55.788Z,7.10
2018-07-27T17:10:47.335Z,8.03
2018-07-27T17:13:27.699Z,7.42
2018-07-27T17:16:12.007Z,8.20
2018-07-27T17:18:55.337Z,9.25
2018-07-27T17:21:31.985Z,7.78
2018-07-27T17:24:29.202Z,8.50
2018-07-27T17:30:13.054Z,7.87
2018-07-27T17:32:54.995Z,8.10
2018-07-27T17:35:53.973Z,7.70
2018-07-27T17:38:36.725Z,7.47
2018-07-27T17:41:14.595Z,8.28
2018-07-27T17:43:51.404Z,7.58
2018-07-27T17:46:35.719Z,7.95
2018-07-27T17:49:16.131Z,8.63
2018-07-27T17:51:53.625Z,8.40
2018-07-27T17:57:17.671Z,8.58
2018-07-27T17:59:55.787Z,7.78
2018-07-27T18:02:42.509Z,7.78
2018-07-27T18:05:17.819Z,6.20
2018-07-27T18:07:58.686Z,7.58
2018-07-27T18:10:32.028Z,7.75
2018-07-27T18:13:06.200Z,7.75
2018-07-27T18:15:55.994Z,8.68
2018-07-27T18:19:03.983Z,7.75
2018-07-27T18:21:42.547Z,6.83
2018-07-27T18:30:18.240Z,8.40
2018-07-27T18:32:52.198Z,9.00
2018-07-27T18:35:34.750Z,8.25
2018-07-27T18:38:21.789Z,8.28
2018-07-27T18:41:25.364Z,8.18
2018-07-27T18:44:37.515Z,8.23
2018-07-27T18:47:18.901Z,9.00
2018-07-27T18:50:24.617Z,8.60
2018-07-27T18:53:08.217Z,7.83
2018-07-27T18:55:56.949Z,8.35
2018-07-27T18:59:22.147Z,7.95
2018-07-27T19:02:11.148Z,8.10
2018-07-27T19:04:58.894Z,8.88
2018-07-27T19:07:30.937Z,8.80
2018-07-27T19:10:05.282Z,8.70
2018-07-27T19:15:46.419Z,8.83
2018-07-27T19:18:25.057Z,8.78
2018-07-27T19:21:02.891Z,9.70
2018-07-27T19:23:41.203Z,8.58
2018-07-27T19:26:15.872Z,9.10
2018-07-27T19:28:48.686Z,9.25
2018-07-27T19:31:26.273Z,9.48
2018-07-27T19:34:06.320Z,10.78
2018-07-27T19:36:39.835Z,9.33
2018-07-27T19:42:06.309Z,10.03
2018-07-27T19:44:52.038Z,9.18
2018-07-27T19:47:32.004Z,10.05
2018-07-27T19:50:11.053Z,10.03
2018-07-27T19:53:07.873Z,10.10
2018-07-27T19:55:38.946Z,10.30
2018-07-27T19:58:20.432Z,10.45
2018-07-27T20:04:14.954Z,9.73
2018-07-27T20:06:57.719Z,9.15
2018-07-27T20:09:37.709Z,10.23
2018-07-27T20:12:32.300Z,9.45
2018-07-27T20:15:08.269Z,10.90
2018-07-27T20:17:41.237Z,10.35
2018-07-27T20:29:26.075Z,9.75
2018-07-27T20:35:56.941Z,10.50
2018-07-27T20:39:56.240Z,10.78
2018-07-27T20:46:59.171Z,10.15
2018-07-27T20:55:35.634Z,10.28
2018-07-27T20:58:30.157Z,10.32
2018-07-27T21:01:12.573Z,10.65
2018-07-27T21:04:03.252Z,10.72
2018-07-27T21:06:36.696Z,10.28
2018-07-27T21:09:18.280Z,10.63
2018-07-27T21:11:56.692Z,10.48
2018-07-27T21:15:45.093Z,10.68
2018-07-27T21:19:48.732Z,10.72
2018-07-27T21:25:36.376Z,10.63
2018-07-27T21:32:07.844Z,10.23
2018-07-27T21:35:18.090Z,11.40
2018-07-27T21:38:32.884Z,10.53
2018-07-27T21:41:08.315Z,10.32
2018-07-27T22:00:44.196Z,11.48
2018-07-27T22:17:55.351Z,11.30
2018-07-27T22:25:59.233Z,11.78
2018-07-27T22:33:03.904Z,11.43
2018-07-27T22:35:57.957Z,10.78
2018-07-27T23:03:48.938Z,10.72
2018-07-27T23:07:06.494Z,10.48
2018-07-27T23:14:28.617Z,10.25
2018-07-27T23:17:08.848Z,9.95
2018-07-27T23:27:43.923Z,10.53
2018-07-27T23:30:59.747Z,10.30
